sensor_id;sensor_type;location;lat;lon;timestamp;pressure;altitude;pressure_sealevel;temperature;humidity
35577;BME280;21680;52.400;16.920;2023-03-14T00:00:28;98725.27;;;11.28;86.93
35577;BME280;21680;52.400;16.920;2023-03-14T00:02:53;98724.88;;;11.30;86.86
35577;BME280;21680;52.400;16.920;2023-03-14T00:05:19;98722.44;;;11.37;86.77
35577;BME280;21680;52.400;16.920;2023-03-14T00:07:45;98724.08;;;11.43;86.58
35577;BME280;21680;52.400;16.920;2023-03-14T00:10:13;98722.48;;;11.48;86.55
35577;BME280;21680;52.400;16.920;2023-03-14T00:12:40;98718.81;;;11.52;85.90
35577;BME280;21680;52.400;16.920;2023-03-14T00:15:07;98713.40;;;11.56;85.93
35577;BME280;21680;52.400;16.920;2023-03-14T00:17:34;98720.36;;;11.59;85.77
35577;BME280;21680;52.400;16.920;2023-03-14T00:19:59;98721.85;;;11.60;86.06
35577;BME280;21680;52.400;16.920;2023-03-14T00:22:34;98713.77;;;11.61;85.32
35577;BME280;21680;52.400;16.920;2023-03-14T00:25:00;98718.48;;;11.60;85.85
35577;BME280;21680;52.400;16.920;2023-03-14T00:27:26;98710.30;;;11.59;85.85
35577;BME280;21680;52.400;16.920;2023-03-14T00:29:51;98708.02;;;11.59;85.75
35577;BME280;21680;52.400;16.920;2023-03-14T00:32:16;98696.77;;;11.59;85.64
35577;BME280;21680;52.400;16.920;2023-03-14T00:34:41;98693.80;;;11.58;85.71
35577;BME280;21680;52.400;16.920;2023-03-14T00:37:07;98695.84;;;11.57;85.66
35577;BME280;21680;52.400;16.920;2023-03-14T00:39:32;98689.05;;;11.57;85.78
35577;BME280;21680;52.400;16.920;2023-03-14T00:41:57;98691.94;;;11.57;85.76
35577;BME280;21680;52.400;16.920;2023-03-14T00:44:23;98688.06;;;11.56;85.79
35577;BME280;21680;52.400;16.920;2023-03-14T00:46:48;98677.11;;;11.56;85.85
35577;BME280;21680;52.400;16.920;2023-03-14T00:49:13;98671.27;;;11.60;85.87
35577;BME280;21680;52.400;16.920;2023-03-14T00:51:39;98670.26;;;11.61;85.83
35577;BME280;21680;52.400;16.920;2023-03-14T00:54:04;98668.80;;;11.64;85.85
35577;BME280;21680;52.400;16.920;2023-03-14T00:56:30;98666.06;;;11.67;85.69
35577;BME280;21680;52.400;16.920;2023-03-14T00:58:56;98664.55;;;11.70;85.75
35577;BME280;21680;52.400;16.920;2023-03-14T01:01:22;98666.77;;;11.71;85.80
35577;BME280;21680;52.400;16.920;2023-03-14T01:03:53;98666.28;;;11.71;85.73
35577;BME280;21680;52.400;16.920;2023-03-14T01:06:21;98660.86;;;11.74;85.96
35577;BME280;21680;52.400;16.920;2023-03-14T01:08:47;98654.15;;;11.78;86.02
35577;BME280;21680;52.400;16.920;2023-03-14T01:11:22;98652.16;;;11.78;86.00
35577;BME280;21680;52.400;16.920;2023-03-14T01:13:48;98650.42;;;11.77;86.02
35577;BME280;21680;52.400;16.920;2023-03-14T01:16:14;98643.33;;;11.76;86.38
35577;BME280;21680;52.400;16.920;2023-03-14T01:18:41;98641.40;;;11.76;86.32
35577;BME280;21680;52.400;16.920;2023-03-14T01:21:23;98638.27;;;11.74;86.66
35577;BME280;21680;52.400;16.920;2023-03-14T01:23:49;98628.00;;;11.73;86.88
35577;BME280;21680;52.400;16.920;2023-03-14T01:26:17;98616.77;;;11.73;86.99
35577;BME280;21680;52.400;16.920;2023-03-14T01:28:46;98612.80;;;11.73;87.14
35577;BME280;21680;52.400;16.920;2023-03-14T01:31:12;98605.85;;;11.75;87.16
35577;BME280;21680;52.400;16.920;2023-03-14T01:33:39;98587.14;;;11.74;87.19
35577;BME280;21680;52.400;16.920;2023-03-14T01:36:06;98574.33;;;11.73;87.23
35577;BME280;21680;52.400;16.920;2023-03-14T01:38:33;98564.66;;;11.73;87.34
35577;BME280;21680;52.400;16.920;2023-03-14T01:40:59;98563.53;;;11.76;87.50
35577;BME280;21680;52.400;16.920;2023-03-14T01:43:24;98551.80;;;11.78;87.49
35577;BME280;21680;52.400;16.920;2023-03-14T01:50:59;98535.48;;;11.71;87.70
35577;BME280;21680;52.400;16.920;2023-03-14T01:53:25;98530.42;;;11.69;87.77
35577;BME280;21680;52.400;16.920;2023-03-14T01:55:52;98527.76;;;11.67;87.73
35577;BME280;21680;52.400;16.920;2023-03-14T01:58:19;98532.25;;;11.64;87.84
35577;BME280;21680;52.400;16.920;2023-03-14T02:00:45;98559.11;;;11.62;87.83
35577;BME280;21680;52.400;16.920;2023-03-14T02:03:15;98569.85;;;11.60;87.82
35577;BME280;21680;52.400;16.920;2023-03-14T02:05:43;98544.21;;;11.60;88.14
35577;BME280;21680;52.400;16.920;2023-03-14T02:08:14;98525.91;;;11.59;88.10
35577;BME280;21680;52.400;16.920;2023-03-14T02:10:43;98527.44;;;11.56;88.12
35577;BME280;21680;52.400;16.920;2023-03-14T02:13:10;98524.42;;;11.51;88.07
35577;BME280;21680;52.400;16.920;2023-03-14T02:15:36;98531.50;;;11.48;88.15
35577;BME280;21680;52.400;16.920;2023-03-14T02:18:03;98539.08;;;11.42;88.14
35577;BME280;21680;52.400;16.920;2023-03-14T02:20:49;98550.87;;;11.38;88.19
35577;BME280;21680;52.400;16.920;2023-03-14T02:25:58;98563.11;;;11.28;88.41
35577;BME280;21680;52.400;16.920;2023-03-14T02:28:26;98569.25;;;11.25;88.64
35577;BME280;21680;52.400;16.920;2023-03-14T02:30:52;98569.25;;;11.21;88.74
35577;BME280;21680;52.400;16.920;2023-03-14T02:33:19;98563.77;;;11.15;88.93
35577;BME280;21680;52.400;16.920;2023-03-14T02:36:01;98556.13;;;11.08;88.78
35577;BME280;21680;52.400;16.920;2023-03-14T02:41:22;98551.84;;;10.96;89.14
35577;BME280;21680;52.400;16.920;2023-03-14T02:43:48;98554.94;;;10.94;89.23
35577;BME280;21680;52.400;16.920;2023-03-14T02:46:16;98556.77;;;10.91;89.49
35577;BME280;21680;52.400;16.920;2023-03-14T02:48:47;98562.86;;;10.88;89.44
35577;BME280;21680;52.400;16.920;2023-03-14T02:51:14;98558.85;;;10.85;89.64
35577;BME280;21680;52.400;16.920;2023-03-14T02:53:40;98554.06;;;10.82;89.77
35577;BME280;21680;52.400;16.920;2023-03-14T02:56:07;98550.14;;;10.80;89.78
35577;BME280;21680;52.400;16.920;2023-03-14T02:58:33;98543.60;;;10.76;90.03
35577;BME280;21680;52.400;16.920;2023-03-14T03:00:58;98544.55;;;10.73;90.05
35577;BME280;21680;52.400;16.920;2023-03-14T03:03:23;98559.20;;;10.71;90.20
35577;BME280;21680;52.400;16.920;2023-03-14T03:05:50;98566.41;;;10.70;90.21
35577;BME280;21680;52.400;16.920;2023-03-14T03:08:16;98561.02;;;10.68;90.27
35577;BME280;21680;52.400;16.920;2023-03-14T03:10:42;98552.92;;;10.66;90.28
35577;BME280;21680;52.400;16.920;2023-03-14T03:13:07;98554.20;;;10.66;90.40
35577;BME280;21680;52.400;16.920;2023-03-14T03:15:33;98550.48;;;10.63;90.31
35577;BME280;21680;52.400;16.920;2023-03-14T03:17:59;98548.55;;;10.61;90.48
35577;BME280;21680;52.400;16.920;2023-03-14T03:20:24;98546.91;;;10.59;90.67
35577;BME280;21680;52.400;16.920;2023-03-14T03:22:49;98554.49;;;10.58;90.55
35577;BME280;21680;52.400;16.920;2023-03-14T03:25:15;98560.86;;;10.56;90.63
35577;BME280;21680;52.400;16.920;2023-03-14T03:27:41;98562.08;;;10.55;90.61
35577;BME280;21680;52.400;16.920;2023-03-14T03:30:07;98554.55;;;10.52;90.74
35577;BME280;21680;52.400;16.920;2023-03-14T03:32:32;98541.32;;;10.53;90.81
35577;BME280;21680;52.400;16.920;2023-03-14T03:34:58;98524.11;;;10.51;90.80
35577;BME280;21680;52.400;16.920;2023-03-14T03:37:23;98518.83;;;10.50;90.78
35577;BME280;21680;52.400;16.920;2023-03-14T03:39:52;98512.02;;;10.48;90.75
35577;BME280;21680;52.400;16.920;2023-03-14T03:42:18;98525.52;;;10.45;90.79
35577;BME280;21680;52.400;16.920;2023-03-14T03:44:43;98530.95;;;10.41;90.71
35577;BME280;21680;52.400;16.920;2023-03-14T03:47:09;98513.63;;;10.37;90.67
35577;BME280;21680;52.400;16.920;2023-03-14T03:49:34;98508.74;;;10.33;90.62
35577;BME280;21680;52.400;16.920;2023-03-14T03:52:00;98504.28;;;10.29;90.58
35577;BME280;21680;52.400;16.920;2023-03-14T03:54:26;98498.30;;;10.23;90.50
35577;BME280;21680;52.400;16.920;2023-03-14T03:56:51;98494.58;;;10.18;90.49
35577;BME280;21680;52.400;16.920;2023-03-14T03:59:17;98487.82;;;10.13;90.50
35577;BME280;21680;52.400;16.920;2023-03-14T04:01:43;98478.82;;;10.08;90.50
35577;BME280;21680;52.400;16.920;2023-03-14T04:04:08;98469.48;;;10.05;90.46
35577;BME280;21680;52.400;16.920;2023-03-14T04:06:34;98471.85;;;9.99;90.37
35577;BME280;21680;52.400;16.920;2023-03-14T04:08:59;98471.20;;;9.94;90.33
35577;BME280;21680;52.400;16.920;2023-03-14T04:11:25;98467.94;;;9.88;90.17
35577;BME280;21680;52.400;16.920;2023-03-14T04:13:50;98474.42;;;9.82;90.19
35577;BME280;21680;52.400;16.920;2023-03-14T04:16:21;98468.59;;;9.77;90.31
35577;BME280;21680;52.400;16.920;2023-03-14T04:18:47;98471.30;;;9.71;90.15
35577;BME280;21680;52.400;16.920;2023-03-14T04:21:12;98468.88;;;9.66;90.25
35577;BME280;21680;52.400;16.920;2023-03-14T04:23:38;98474.34;;;9.59;90.08
35577;BME280;21680;52.400;16.920;2023-03-14T04:26:05;98472.24;;;9.54;90.05
35577;BME280;21680;52.400;16.920;2023-03-14T04:28:30;98465.48;;;9.49;89.94
35577;BME280;21680;52.400;16.920;2023-03-14T04:30:55;98486.35;;;9.44;90.01
35577;BME280;21680;52.400;16.920;2023-03-14T04:33:21;98493.41;;;9.37;89.82
35577;BME280;21680;52.400;16.920;2023-03-14T04:35:46;98485.25;;;9.32;89.79
35577;BME280;21680;52.400;16.920;2023-03-14T04:38:12;98477.08;;;9.27;89.85
35577;BME280;21680;52.400;16.920;2023-03-14T04:40:41;98465.09;;;9.23;89.75
35577;BME280;21680;52.400;16.920;2023-03-14T04:43:08;98460.77;;;9.19;89.74
35577;BME280;21680;52.400;16.920;2023-03-14T04:45:35;98456.67;;;9.14;89.56
35577;BME280;21680;52.400;16.920;2023-03-14T04:48:00;98446.59;;;9.10;89.62
35577;BME280;21680;52.400;16.920;2023-03-14T04:50:26;98445.44;;;9.06;89.62
35577;BME280;21680;52.400;16.920;2023-03-14T04:52:51;98440.15;;;9.03;89.57
35577;BME280;21680;52.400;16.920;2023-03-14T04:55:16;98454.56;;;9.01;89.42
35577;BME280;21680;52.400;16.920;2023-03-14T04:57:42;98445.08;;;8.99;89.53
35577;BME280;21680;52.400;16.920;2023-03-14T05:00:08;98445.48;;;8.96;89.34
35577;BME280;21680;52.400;16.920;2023-03-14T05:02:34;98445.85;;;8.93;89.18
35577;BME280;21680;52.400;16.920;2023-03-14T05:05:00;98438.90;;;8.91;89.33
35577;BME280;21680;52.400;16.920;2023-03-14T05:07:25;98450.98;;;8.89;89.26
35577;BME280;21680;52.400;16.920;2023-03-14T05:09:50;98461.27;;;8.87;89.25
35577;BME280;21680;52.400;16.920;2023-03-14T05:12:16;98464.83;;;8.84;89.34
35577;BME280;21680;52.400;16.920;2023-03-14T05:14:41;98457.52;;;8.82;89.31
35577;BME280;21680;52.400;16.920;2023-03-14T05:17:06;98459.81;;;8.79;89.05
35577;BME280;21680;52.400;16.920;2023-03-14T05:19:32;98472.61;;;8.77;89.11
35577;BME280;21680;52.400;16.920;2023-03-14T05:21:57;98476.27;;;8.76;89.11
35577;BME280;21680;52.400;16.920;2023-03-14T05:24:23;98473.75;;;8.74;89.06
35577;BME280;21680;52.400;16.920;2023-03-14T05:26:48;98469.37;;;8.73;89.03
35577;BME280;21680;52.400;16.920;2023-03-14T05:29:13;98462.11;;;8.70;89.03
35577;BME280;21680;52.400;16.920;2023-03-14T05:31:39;98461.02;;;8.68;88.93
35577;BME280;21680;52.400;16.920;2023-03-14T05:34:04;98467.15;;;8.67;88.99
35577;BME280;21680;52.400;16.920;2023-03-14T05:36:29;98456.19;;;8.65;88.92
35577;BME280;21680;52.400;16.920;2023-03-14T05:38:55;98468.29;;;8.66;88.93
35577;BME280;21680;52.400;16.920;2023-03-14T05:41:20;98468.56;;;8.67;88.81
35577;BME280;21680;52.400;16.920;2023-03-14T05:43:45;98470.25;;;8.68;88.99
35577;BME280;21680;52.400;16.920;2023-03-14T05:46:11;98470.03;;;8.68;88.89
35577;BME280;21680;52.400;16.920;2023-03-14T05:48:36;98456.88;;;8.71;88.88
35577;BME280;21680;52.400;16.920;2023-03-14T05:51:01;98457.42;;;8.73;88.86
35577;BME280;21680;52.400;16.920;2023-03-14T05:53:27;98447.48;;;8.75;88.86
35577;BME280;21680;52.400;16.920;2023-03-14T05:55:55;98447.29;;;8.78;88.90
35577;BME280;21680;52.400;16.920;2023-03-14T05:58:20;98453.44;;;8.82;88.93
35577;BME280;21680;52.400;16.920;2023-03-14T06:00:46;98454.30;;;8.83;88.82
35577;BME280;21680;52.400;16.920;2023-03-14T06:03:11;98460.48;;;8.83;88.78
35577;BME280;21680;52.400;16.920;2023-03-14T06:05:36;98462.06;;;8.86;88.80
35577;BME280;21680;52.400;16.920;2023-03-14T06:08:02;98459.27;;;8.87;88.79
35577;BME280;21680;52.400;16.920;2023-03-14T06:10:27;98461.66;;;8.89;88.80
35577;BME280;21680;52.400;16.920;2023-03-14T06:12:52;98458.66;;;8.91;88.80
35577;BME280;21680;52.400;16.920;2023-03-14T06:15:19;98471.89;;;8.95;88.82
35577;BME280;21680;52.400;16.920;2023-03-14T06:17:44;98462.76;;;8.98;88.82
35577;BME280;21680;52.400;16.920;2023-03-14T06:20:10;98470.16;;;9.02;88.83
35577;BME280;21680;52.400;16.920;2023-03-14T06:22:35;98468.15;;;9.05;88.87
35577;BME280;21680;52.400;16.920;2023-03-14T06:25:01;98465.77;;;9.11;88.76
35577;BME280;21680;52.400;16.920;2023-03-14T06:27:26;98465.48;;;9.17;88.87
35577;BME280;21680;52.400;16.920;2023-03-14T06:29:51;98475.54;;;9.21;88.82
35577;BME280;21680;52.400;16.920;2023-03-14T06:32:17;98478.59;;;9.26;88.79
35577;BME280;21680;52.400;16.920;2023-03-14T06:34:43;98469.05;;;9.29;88.82
35577;BME280;21680;52.400;16.920;2023-03-14T06:37:09;98462.57;;;9.38;88.94
35577;BME280;21680;52.400;16.920;2023-03-14T06:39:34;98460.57;;;9.45;88.84
35577;BME280;21680;52.400;16.920;2023-03-14T06:41:59;98451.89;;;9.54;88.69
35577;BME280;21680;52.400;16.920;2023-03-14T06:44:25;98452.08;;;9.64;88.96
35577;BME280;21680;52.400;16.920;2023-03-14T06:46:50;98451.89;;;9.73;88.82
35577;BME280;21680;52.400;16.920;2023-03-14T06:49:15;98444.38;;;9.81;88.83
35577;BME280;21680;52.400;16.920;2023-03-14T06:51:40;98447.61;;;9.88;88.81
35577;BME280;21680;52.400;16.920;2023-03-14T06:54:06;98455.58;;;9.95;88.92
35577;BME280;21680;52.400;16.920;2023-03-14T06:56:31;98445.12;;;10.03;88.88
35577;BME280;21680;52.400;16.920;2023-03-14T06:58:56;98448.77;;;10.10;88.63
35577;BME280;21680;52.400;16.920;2023-03-14T07:01:27;98445.98;;;10.16;88.67
35577;BME280;21680;52.400;16.920;2023-03-14T07:03:53;98447.27;;;10.22;88.07
35577;BME280;21680;52.400;16.920;2023-03-14T07:06:18;98441.48;;;10.30;88.48
35577;BME280;21680;52.400;16.920;2023-03-14T07:08:44;98439.06;;;10.36;88.32
35577;BME280;21680;52.400;16.920;2023-03-14T07:11:09;98430.94;;;10.42;88.35
35577;BME280;21680;52.400;16.920;2023-03-14T07:13:37;98433.70;;;10.45;88.28
35577;BME280;21680;52.400;16.920;2023-03-14T07:16:04;98439.08;;;10.47;88.17
35577;BME280;21680;52.400;16.920;2023-03-14T07:18:29;98433.70;;;10.50;87.70
35577;BME280;21680;52.400;16.920;2023-03-14T07:20:55;98435.96;;;10.53;88.00
35577;BME280;21680;52.400;16.920;2023-03-14T07:23:20;98440.81;;;10.54;87.82
35577;BME280;21680;52.400;16.920;2023-03-14T07:25:45;98431.77;;;10.54;87.59
35577;BME280;21680;52.400;16.920;2023-03-14T07:28:10;98432.10;;;10.54;87.46
35577;BME280;21680;52.400;16.920;2023-03-14T07:30:36;98435.65;;;10.57;87.59
35577;BME280;21680;52.400;16.920;2023-03-14T07:33:01;98431.61;;;10.58;86.68
35577;BME280;21680;52.400;16.920;2023-03-14T07:35:26;98429.71;;;10.62;87.40
35577;BME280;21680;52.400;16.920;2023-03-14T07:37:51;98425.86;;;10.65;87.28
35577;BME280;21680;52.400;16.920;2023-03-14T07:40:17;98425.38;;;10.67;87.29
35577;BME280;21680;52.400;16.920;2023-03-14T07:42:42;98428.19;;;10.70;87.36
35577;BME280;21680;52.400;16.920;2023-03-14T07:45:10;98426.89;;;10.72;87.37
35577;BME280;21680;52.400;16.920;2023-03-14T07:47:36;98432.13;;;10.76;87.40
35577;BME280;21680;52.400;16.920;2023-03-14T07:50:03;98438.30;;;10.80;87.32
35577;BME280;21680;52.400;16.920;2023-03-14T07:52:29;98439.41;;;10.84;86.72
35577;BME280;21680;52.400;16.920;2023-03-14T07:54:54;98444.95;;;10.88;87.18
35577;BME280;21680;52.400;16.920;2023-03-14T07:57:19;98441.00;;;10.93;86.96
35577;BME280;21680;52.400;16.920;2023-03-14T07:59:45;98440.39;;;10.98;87.22
35577;BME280;21680;52.400;16.920;2023-03-14T08:02:11;98444.35;;;11.04;86.80
35577;BME280;21680;52.400;16.920;2023-03-14T08:04:37;98437.42;;;11.13;87.04
35577;BME280;21680;52.400;16.920;2023-03-14T08:07:03;98435.00;;;11.23;86.90
35577;BME280;21680;52.400;16.920;2023-03-14T08:09:28;98437.57;;;11.30;86.78
35577;BME280;21680;52.400;16.920;2023-03-14T08:11:53;98431.21;;;11.38;86.59
35577;BME280;21680;52.400;16.920;2023-03-14T08:14:18;98432.41;;;11.45;86.43
35577;BME280;21680;52.400;16.920;2023-03-14T08:16:44;98436.08;;;11.53;86.35
35577;BME280;21680;52.400;16.920;2023-03-14T08:19:09;98445.16;;;11.60;86.26
35577;BME280;21680;52.400;16.920;2023-03-14T08:21:34;98448.58;;;11.66;86.12
35577;BME280;21680;52.400;16.920;2023-03-14T08:24:00;98462.17;;;11.75;86.09
35577;BME280;21680;52.400;16.920;2023-03-14T08:26:26;98468.73;;;11.80;85.26
35577;BME280;21680;52.400;16.920;2023-03-14T08:28:51;98465.85;;;11.85;83.88
35577;BME280;21680;52.400;16.920;2023-03-14T08:31:16;98463.04;;;11.86;84.20
35577;BME280;21680;52.400;16.920;2023-03-14T08:33:42;98464.14;;;11.88;84.33
35577;BME280;21680;52.400;16.920;2023-03-14T08:36:08;98465.39;;;11.90;83.90
35577;BME280;21680;52.400;16.920;2023-03-14T08:38:33;98462.98;;;11.93;83.88
35577;BME280;21680;52.400;16.920;2023-03-14T08:41:00;98466.63;;;11.99;84.03
35577;BME280;21680;52.400;16.920;2023-03-14T08:43:27;98459.48;;;12.03;83.58
35577;BME280;21680;52.400;16.920;2023-03-14T08:45:53;98453.86;;;12.08;83.54
35577;BME280;21680;52.400;16.920;2023-03-14T08:48:18;98454.79;;;12.14;83.16
35577;BME280;21680;52.400;16.920;2023-03-14T08:50:45;98453.81;;;12.19;82.96
35577;BME280;21680;52.400;16.920;2023-03-14T08:53:11;98442.20;;;12.25;82.74
35577;BME280;21680;52.400;16.920;2023-03-14T08:55:36;98441.84;;;12.29;81.94
35577;BME280;21680;52.400;16.920;2023-03-14T08:58:01;98449.55;;;12.33;82.11
35577;BME280;21680;52.400;16.920;2023-03-14T09:00:26;98453.23;;;12.37;81.40
35577;BME280;21680;52.400;16.920;2023-03-14T09:02:52;98453.55;;;12.39;81.67
35577;BME280;21680;52.400;16.920;2023-03-14T09:05:17;98457.02;;;12.42;80.62
35577;BME280;21680;52.400;16.920;2023-03-14T09:07:43;98454.14;;;12.43;81.16
35577;BME280;21680;52.400;16.920;2023-03-14T09:10:10;98462.59;;;12.46;81.20
35577;BME280;21680;52.400;16.920;2023-03-14T09:12:35;98460.60;;;12.49;80.67
35577;BME280;21680;52.400;16.920;2023-03-14T09:15:01;98461.39;;;12.48;80.48
35577;BME280;21680;52.400;16.920;2023-03-14T09:17:27;98456.79;;;12.45;79.73
35577;BME280;21680;52.400;16.920;2023-03-14T09:19:52;98452.30;;;12.41;79.50
35577;BME280;21680;52.400;16.920;2023-03-14T09:22:17;98448.64;;;12.40;79.18
35577;BME280;21680;52.400;16.920;2023-03-14T09:24:43;98448.41;;;12.45;79.81
35577;BME280;21680;52.400;16.920;2023-03-14T09:27:08;98459.09;;;12.51;79.75
35577;BME280;21680;52.400;16.920;2023-03-14T09:29:33;98454.27;;;12.53;79.17
35577;BME280;21680;52.400;16.920;2023-03-14T09:31:59;98459.73;;;12.54;79.22
35577;BME280;21680;52.400;16.920;2023-03-14T09:34:25;98450.89;;;12.59;79.21
35577;BME280;21680;52.400;16.920;2023-03-14T09:36:50;98448.36;;;12.62;78.68
35577;BME280;21680;52.400;16.920;2023-03-14T09:39:15;98446.42;;;12.63;78.49
35577;BME280;21680;52.400;16.920;2023-03-14T09:41:47;98453.85;;;12.64;78.21
35577;BME280;21680;52.400;16.920;2023-03-14T09:44:51;98450.27;;;12.64;77.71
35577;BME280;21680;52.400;16.920;2023-03-14T09:47:18;98456.55;;;12.62;77.62
35577;BME280;21680;52.400;16.920;2023-03-14T09:49:45;98451.17;;;12.60;78.12
35577;BME280;21680;52.400;16.920;2023-03-14T09:52:29;98451.83;;;12.61;77.69
35577;BME280;21680;52.400;16.920;2023-03-14T09:55:03;98447.48;;;12.57;77.52
35577;BME280;21680;52.400;16.920;2023-03-14T09:57:29;98445.43;;;12.56;77.76
35577;BME280;21680;52.400;16.920;2023-03-14T09:59:57;98444.85;;;12.58;77.97
35577;BME280;21680;52.400;16.920;2023-03-14T10:02:28;98445.54;;;12.61;77.66
35577;BME280;21680;52.400;16.920;2023-03-14T10:04:58;98445.39;;;12.63;77.41
35577;BME280;21680;52.400;16.920;2023-03-14T10:07:30;98440.59;;;12.66;77.66
35577;BME280;21680;52.400;16.920;2023-03-14T10:09:56;98440.73;;;12.77;77.86
35577;BME280;21680;52.400;16.920;2023-03-14T10:12:33;98446.64;;;12.87;77.56
35577;BME280;21680;52.400;16.920;2023-03-14T10:15:03;98443.73;;;12.94;77.53
35577;BME280;21680;52.400;16.920;2023-03-14T10:17:38;98444.54;;;12.99;77.49
35577;BME280;21680;52.400;16.920;2023-03-14T10:20:04;98444.64;;;13.02;77.48
35577;BME280;21680;52.400;16.920;2023-03-14T10:22:30;98443.05;;;13.07;77.42
35577;BME280;21680;52.400;16.920;2023-03-14T10:25:03;98444.23;;;13.14;77.49
35577;BME280;21680;52.400;16.920;2023-03-14T10:27:33;98442.04;;;13.19;77.44
35577;BME280;21680;52.400;16.920;2023-03-14T10:30:04;98439.08;;;13.24;77.92
35577;BME280;21680;52.400;16.920;2023-03-14T10:32:37;98440.69;;;13.30;76.86
35577;BME280;21680;52.400;16.920;2023-03-14T10:37:56;98450.65;;;13.33;76.87
35577;BME280;21680;52.400;16.920;2023-03-14T10:40:30;98444.61;;;13.32;76.97
35577;BME280;21680;52.400;16.920;2023-03-14T10:42:58;98440.27;;;13.39;77.08
35577;BME280;21680;52.400;16.920;2023-03-14T10:47:57;98443.44;;;13.51;76.84
35577;BME280;21680;52.400;16.920;2023-03-14T10:50:30;98446.02;;;13.51;76.14
35577;BME280;21680;52.400;16.920;2023-03-14T10:52:56;98452.62;;;13.53;76.24
35577;BME280;21680;52.400;16.920;2023-03-14T10:55:24;98444.46;;;13.56;76.28
35577;BME280;21680;52.400;16.920;2023-03-14T10:57:50;98440.22;;;13.57;76.25
35577;BME280;21680;52.400;16.920;2023-03-14T11:00:21;98438.49;;;13.54;76.21
35577;BME280;21680;52.400;16.920;2023-03-14T11:03:08;98438.14;;;13.52;75.86
35577;BME280;21680;52.400;16.920;2023-03-14T11:05:41;98442.41;;;13.51;75.68
35577;BME280;21680;52.400;16.920;2023-03-14T11:08:43;98438.65;;;13.52;75.16
35577;BME280;21680;52.400;16.920;2023-03-14T11:11:19;98439.14;;;13.59;75.42
35577;BME280;21680;52.400;16.920;2023-03-14T11:17:00;98443.39;;;13.58;75.28
35577;BME280;21680;52.400;16.920;2023-03-14T11:25:06;98442.23;;;13.74;74.53
35577;BME280;21680;52.400;16.920;2023-03-14T11:27:41;98431.73;;;13.85;75.18
35577;BME280;21680;52.400;16.920;2023-03-14T11:30:19;98426.20;;;13.96;75.18
35577;BME280;21680;52.400;16.920;2023-03-14T11:32:55;98429.34;;;14.09;75.15
35577;BME280;21680;52.400;16.920;2023-03-14T11:35:30;98433.44;;;14.22;74.84
35577;BME280;21680;52.400;16.920;2023-03-14T11:40:33;98429.06;;;14.33;74.40
35577;BME280;21680;52.400;16.920;2023-03-14T11:43:20;98431.84;;;14.28;74.20
35577;BME280;21680;52.400;16.920;2023-03-14T11:45:51;98434.49;;;14.19;73.82
35577;BME280;21680;52.400;16.920;2023-03-14T11:48:19;98434.33;;;14.19;73.96
35577;BME280;21680;52.400;16.920;2023-03-14T11:50:52;98433.52;;;14.22;73.51
35577;BME280;21680;52.400;16.920;2023-03-14T11:53:29;98426.06;;;14.28;73.83
35577;BME280;21680;52.400;16.920;2023-03-14T11:56:00;98424.07;;;14.50;73.96
35577;BME280;21680;52.400;16.920;2023-03-14T11:58:27;98418.70;;;14.72;74.12
35577;BME280;21680;52.400;16.920;2023-03-14T12:00:55;98415.82;;;14.78;73.80
35577;BME280;21680;52.400;16.920;2023-03-14T12:03:50;98405.86;;;14.67;73.49
35577;BME280;21680;52.400;16.920;2023-03-14T12:08:55;98402.23;;;14.28;72.98
35577;BME280;21680;52.400;16.920;2023-03-14T12:14:23;98407.14;;;14.08;72.81
35577;BME280;21680;52.400;16.920;2023-03-14T12:16:54;98404.77;;;14.01;72.79
35577;BME280;21680;52.400;16.920;2023-03-14T12:22:06;98401.45;;;14.00;72.49
35577;BME280;21680;52.400;16.920;2023-03-14T12:24:36;98404.23;;;14.16;72.40
35577;BME280;21680;52.400;16.920;2023-03-14T12:27:04;98401.86;;;14.30;71.43
35577;BME280;21680;52.400;16.920;2023-03-14T12:29:30;98402.41;;;14.39;71.44
35577;BME280;21680;52.400;16.920;2023-03-14T12:32:08;98399.11;;;14.44;71.01
35577;BME280;21680;52.400;16.920;2023-03-14T12:34:40;98398.80;;;14.47;70.17
35577;BME280;21680;52.400;16.920;2023-03-14T12:43:00;98399.35;;;14.39;67.80
35577;BME280;21680;52.400;16.920;2023-03-14T12:45:29;98401.43;;;14.32;66.89
35577;BME280;21680;52.400;16.920;2023-03-14T12:47:56;98399.17;;;14.26;66.81
35577;BME280;21680;52.400;16.920;2023-03-14T12:50:30;98398.50;;;14.23;66.59
35577;BME280;21680;52.400;16.920;2023-03-14T12:56:15;98394.36;;;14.35;66.74
35577;BME280;21680;52.400;16.920;2023-03-14T12:58:56;98398.17;;;14.44;66.38
35577;BME280;21680;52.400;16.920;2023-03-14T13:01:26;98392.45;;;14.65;66.66
35577;BME280;21680;52.400;16.920;2023-03-14T13:03:56;98393.87;;;15.00;65.86
35577;BME280;21680;52.400;16.920;2023-03-14T13:11:55;98388.09;;;15.44;64.89
35577;BME280;21680;52.400;16.920;2023-03-14T13:14:22;98395.41;;;15.89;63.80
35577;BME280;21680;52.400;16.920;2023-03-14T13:16:47;98391.23;;;16.28;64.03
35577;BME280;21680;52.400;16.920;2023-03-14T13:19:23;98393.82;;;16.63;62.13
35577;BME280;21680;52.400;16.920;2023-03-14T13:21:50;98393.95;;;16.75;61.88
35577;BME280;21680;52.400;16.920;2023-03-14T13:24:27;98392.73;;;16.87;62.11
35577;BME280;21680;52.400;16.920;2023-03-14T13:26:56;98395.19;;;16.75;61.01
35577;BME280;21680;52.400;16.920;2023-03-14T13:29:23;98398.42;;;16.32;60.65
35577;BME280;21680;52.400;16.920;2023-03-14T13:31:51;98408.58;;;16.01;59.99
35577;BME280;21680;52.400;16.920;2023-03-14T13:34:18;98404.60;;;15.70;59.49
35577;BME280;21680;52.400;16.920;2023-03-14T13:36:44;98397.46;;;15.38;59.26
35577;BME280;21680;52.400;16.920;2023-03-14T13:39:13;98396.14;;;15.22;59.58
35577;BME280;21680;52.400;16.920;2023-03-14T13:41:40;98403.65;;;15.10;59.55
35577;BME280;21680;52.400;16.920;2023-03-14T13:44:16;98402.39;;;14.99;59.36